x

Central Caribbean - 210 Nm Sse Of Kingston, Jamaica (42058) Wave Buoy

7:50 - Tue 17th Jan 2017 All times are EST. -5 hours from GMT.

  • Sig Wave height 9.2ft
  • Swell Direction
  • Peak Period 8s
  • Average Period 6s
  • Wind
    27mph, 34mph gusts
  • Sea Temp 81°f
  • Luft Temp 80°f
  • Sea Pressure 1015.5mb
  • Central Caribbean - 210 Nm Sse Of Kingston, Jamaica
  • Central Caribbean - 210 Nm Sse Of Kingston, Jamaica

More Historic Weather Station data

Upgrade to MSW Pro to gain access to the past 30 days of data for over 8000 Wavebouys and Weather Stations around the globe.

Join Pro

Comparision Forecast

View Surf forecast
   
Di 01/17 7:50 9ft 8s 6s 27 34 mph 1015.5mb 81f 80f
6:50 9ft 8s 6s 27 34 mph 1014.6mb 81f 80f
5:50 8.5ft 8s 6s 29 36 mph 1014mb 81f 79f
4:50 8.5ft 8s 6s 25 29 mph 1013.8mb 81f 80f
3:50 8.5ft 8s 6s 27 31 mph 1013.4mb 81f 80f
2:50 8.5ft 8s 6s 27 34 mph 1013.5mb 81f 80f
1:50 9.5ft 8s 6s 25 31 mph 1014.2mb 81f 80f
12:50 9ft 8s 6s 22 29 mph 1015.1mb 81f 80f
Mo 01/16 11:50 9ft 8s 6s 27 34 mph 1015.3mb 81f 80f
10:50 9ft 8s 6s 25 31 mph 1015.6mb 81f 80f
9:50 9.5ft 8s 6s 25 31 mph 1015.6mb 81f 80f
8:50 9ft 8s 6s 25 31 mph 1015.6mb 81f 80f
7:50 9ft 7s 6s 22 29 mph 1015.2mb 81f 80f
6:50 9ft 8s 6s 25 31 mph 1014.4mb 81f 80f
5:50 9ft 8s 6s 27 31 mph 1013.7mb 81f 81f
4:50 8ft 8s 6s 25 29 mph 1013.2mb 81f 80f
3:50 8ft 8s 6s 25 29 mph 1013mb 81f 80f
2:50 8ft 8s 6s 20 27 mph 1013.4mb 81f 79f
1:50 8ft 8s 6s 18 20 mph 1014mb 81f 78f
12:50 8.5ft 8s 6s 27 40 mph 1014.5mb 81f 77f
11:50 8ft 8s 6s 27 31 mph 1015.1mb 81f 80f
10:50 8ft 8s 6s 27 36 mph 1015.9mb 81f 80f
9:50 8ft 8s 6s 27 34 mph 1016mb 81f 80f
8:50 9.5ft 8s 6s 25 31 mph 1015.6mb 81f 81f
7:50 8ft 8s 6s 27 31 mph 1014.9mb 81f 81f
6:50 8.5ft 8s 6s 27 31 mph 1014.1mb 81f 80f
5:50 8.5ft 8s 6s 25 29 mph 1013.5mb 81f 80f
4:50 8.5ft 8s 6s 27 31 mph 1013.1mb 81f 80f
2:50 8ft 8s 6s 25 29 mph 1013mb 81f 80f
1:50 8.5ft 8s 6s 22 27 mph 1013.3mb 81f 80f
12:50 8.5ft 8s 6s 22 27 mph 1013.8mb 81f 80f
So 01/15 11:50 8ft 8s 6s 20 25 mph 1014.4mb 81f 80f
10:50 8.5ft 8s 6s 25 31 mph 1014.5mb 81f 79f
9:50 9ft 9s 6s 25 29 mph 1014.3mb 81f 80f
8:50 9ft 8s 6s 22 27 mph 1014.2mb 81f 80f
7:50 9ft 8s 6s 22 27 mph 1013.8mb 81f 80f
6:50 9ft 8s 6s 25 29 mph 1013.1mb 81f 80f
5:50 9ft 8s 6s 25 29 mph 1012.6mb 81f 81f
4:50 10ft 8s 7s 18 22 mph 1012.6mb 81f 78f
3:50 9.5ft 8s 6s 25 34 mph 1012.5mb 81f 80f
2:50 9.5ft 8s 6s 22 29 mph 1012.7mb 81f 80f
1:50 9ft 8s 6s 22 27 mph 1013mb 81f 80f
12:50 9ft 8s 6s 25 29 mph 1013.9mb 81f 80f
11:50 9ft 8s 6s 22 27 mph 1015.2mb 81f 81f
10:50 8ft 8s 6s 25 29 mph 1015.9mb 81f 80f
9:50 8.5ft 8s 6s 22 29 mph 1016.5mb 81f 80f
8:50 9ft 8s 6s 22 27 mph 1016.2mb 81f 80f
7:50 9ft 8s 6s 29 38 mph 1015.4mb 81f 76f
6:50 9ft 8s 6s 29 36 mph 1014.6mb 81f 77f
5:50 9ft 8s 6s 22 27 mph 1013.5mb 81f 80f
4:50 8.5ft 7s 6s 22 29 mph 1013.5mb 81f 80f
3:50 8.5ft 8s 6s 25 29 mph 1013.5mb 81f 81f
2:50 9.5ft 9s 6s 25 31 mph 1013.4mb 81f 80f
1:50 8.5ft 8s 6s 27 31 mph 1013.7mb 81f 80f
12:50 9ft 8s 6s 25 31 mph 1014.3mb 81f 80f
Sa 01/14 11:50 9ft 8s 6s 25 29 mph 1014.9mb 81f 80f
10:50 9.5ft 8s 6s 25 29 mph 1015.5mb 81f 80f
9:50 9.5ft 8s 6s 27 31 mph 1015.4mb 81f 80f
8:50 9.5ft 9s 6s 27 31 mph 1015.4mb 81f 80f
7:50 9ft 8s 6s 27 31 mph 1014.8mb 81f 80f
6:50 9ft 8s 6s 25 29 mph 1014.4mb 81f 81f
5:50 9.5ft 8s 6s 25 31 mph 1013.8mb 81f 81f
4:50 9ft 8s 6s 27 31 mph 1013.4mb 81f 80f
3:50 9ft 8s 6s 25 29 mph 1013.5mb 81f 80f
2:50 9.5ft 8s 6s 18 20 mph 1014.1mb 81f 78f
1:50 9ft 8s 6s 18 22 mph 1014.6mb 81f 79f
12:50 8.5ft 9s 6s 27 31 mph 1015.4mb 81f 75f
11:50 8ft 8s 6s 25 29 mph 1015.9mb 81f 80f
10:50 8.5ft 8s 6s 25 27 mph 1016.5mb 81f 80f
9:50 9ft 8s 6s 25 29 mph 1016.7mb 81f 81f
8:50 9ft 9s 6s 27 31 mph 1016.6mb 81f 81f
7:50 10ft 8s 6s 27 34 mph 1016.2mb 81f 80f
6:50 9ft 8s 6s 25 31 mph 1015.4mb 81f 80f
5:50 10ft 8s 6s 27 36 mph 1014.8mb 81f 80f
4:50 9.5ft 8s 6s 29 34 mph 1014.5mb 81f 80f
3:50 10ft 8s 6s 22 29 mph 1014.8mb 81f 80f
2:50 9ft 8s 6s 29 34 mph 1014.7mb 81f 78f
1:50 9.5ft 9s 6s 27 34 mph 1015.1mb 81f 79f
12:50 9ft 7s 6s 36 45 mph 1015.7mb 81f 76f
Fr 01/13 11:50 9ft 9s 6s 29 34 mph 1016.3mb 81f 80f
10:50 8ft 8s 6s 25 29 mph 1016.8mb 81f 80f
9:50 8.5ft 9s 6s 22 27 mph 1017.1mb 81f 80f
8:50 9ft 8s 6s 25 29 mph 1016.9mb 81f 80f
7:50 9ft 9s 6s 22 29 mph 1016.5mb 81f 80f
6:50 9ft 9s 6s 22 27 mph 1016mb 81f 80f
5:50 9ft 9s 6s 22 29 mph 1015.6mb 81f 80f
4:50 10ft 9s 6s 22 27 mph 1015.2mb 81f 80f
3:50 9ft 9s 6s 22 27 mph 1015.1mb 81f 80f
2:50 9.5ft 9s 6s 25 29 mph 1014.9mb 81f 80f
1:50 10ft 9s 7s 25 29 mph 1015.3mb 81f 80f